sensor_id;sensor_type;location;lat;lon;timestamp;pressure;altitude;pressure_sealevel;temperature;humidity
50636;BME280;36598;46.054;11.130;2023-01-10T00:00:08;98460.78;;;3.58;79.69
50636;BME280;36598;46.054;11.130;2023-01-10T00:02:33;98457.75;;;3.88;78.42
50636;BME280;36598;46.054;11.130;2023-01-10T00:04:59;98460.00;;;3.57;80.20
50636;BME280;36598;46.054;11.130;2023-01-10T00:07:24;98458.09;;;3.65;79.25
50636;BME280;36598;46.054;11.130;2023-01-10T00:09:49;98459.63;;;3.62;79.45
50636;BME280;36598;46.054;11.130;2023-01-10T00:12:14;98460.81;;;3.61;79.39
50636;BME280;36598;46.054;11.130;2023-01-10T00:14:58;98472.03;;;3.31;80.21
50636;BME280;36598;46.054;11.130;2023-01-10T00:17:23;98473.53;;;3.18;80.27
50636;BME280;36598;46.054;11.130;2023-01-10T00:19:49;98477.53;;;3.45;78.95
50636;BME280;36598;46.054;11.130;2023-01-10T00:22:14;98480.69;;;3.47;78.80
50636;BME280;36598;46.054;11.130;2023-01-10T00:24:42;98485.31;;;3.36;78.39
50636;BME280;36598;46.054;11.130;2023-01-10T00:27:08;98494.72;;;3.46;77.61
50636;BME280;36598;46.054;11.130;2023-01-10T00:29:33;98494.81;;;3.64;77.53
50636;BME280;36598;46.054;11.130;2023-01-10T00:31:59;98493.22;;;3.59;78.20
50636;BME280;36598;46.054;11.130;2023-01-10T00:34:24;98488.97;;;3.69;77.36
50636;BME280;36598;46.054;11.130;2023-01-10T00:36:51;98488.06;;;3.40;78.11
50636;BME280;36598;46.054;11.130;2023-01-10T00:39:16;98484.59;;;3.50;78.45
50636;BME280;36598;46.054;11.130;2023-01-10T00:41:44;98495.94;;;3.52;78.61
50636;BME280;36598;46.054;11.130;2023-01-10T00:44:28;98495.88;;;3.38;78.93
50636;BME280;36598;46.054;11.130;2023-01-10T00:46:53;98490.41;;;3.41;78.56
50636;BME280;36598;46.054;11.130;2023-01-10T00:49:19;98505.28;;;3.44;78.44
50636;BME280;36598;46.054;11.130;2023-01-10T00:51:44;98504.75;;;3.20;78.35
50636;BME280;36598;46.054;11.130;2023-01-10T00:54:10;98509.97;;;3.40;77.57
50636;BME280;36598;46.054;11.130;2023-01-10T00:56:37;98520.16;;;3.50;77.40
50636;BME280;36598;46.054;11.130;2023-01-10T00:59:02;98525.69;;;3.64;76.56
50636;BME280;36598;46.054;11.130;2023-01-10T01:01:28;98519.66;;;3.26;77.39
50636;BME280;36598;46.054;11.130;2023-01-10T01:03:53;98525.16;;;3.37;77.09
50636;BME280;36598;46.054;11.130;2023-01-10T01:06:18;98530.53;;;3.19;78.15
50636;BME280;36598;46.054;11.130;2023-01-10T01:08:44;98532.97;;;3.32;77.14
50636;BME280;36598;46.054;11.130;2023-01-10T01:11:09;98539.31;;;3.54;76.58
50636;BME280;36598;46.054;11.130;2023-01-10T01:13:34;98540.91;;;3.58;76.07
50636;BME280;36598;46.054;11.130;2023-01-10T01:16:00;98552.09;;;3.32;77.13
50636;BME280;36598;46.054;11.130;2023-01-10T01:18:26;98547.44;;;3.36;76.75
50636;BME280;36598;46.054;11.130;2023-01-10T01:20:52;98562.88;;;3.07;78.46
50636;BME280;36598;46.054;11.130;2023-01-10T01:23:17;98557.53;;;3.28;78.22
50636;BME280;36598;46.054;11.130;2023-01-10T01:25:43;98575.97;;;3.42;77.71
50636;BME280;36598;46.054;11.130;2023-01-10T01:28:10;98577.38;;;3.14;78.41
50636;BME280;36598;46.054;11.130;2023-01-10T01:30:36;98585.88;;;3.02;78.92
50636;BME280;36598;46.054;11.130;2023-01-10T01:33:01;98585.28;;;2.75;79.72
50636;BME280;36598;46.054;11.130;2023-01-10T01:35:27;98582.06;;;3.14;78.33
50636;BME280;36598;46.054;11.130;2023-01-10T01:37:52;98589.03;;;3.04;78.03
50636;BME280;36598;46.054;11.130;2023-01-10T01:40:18;98593.69;;;3.00;78.01
50636;BME280;36598;46.054;11.130;2023-01-10T01:42:45;98595.38;;;3.19;77.40
50636;BME280;36598;46.054;11.130;2023-01-10T01:47:46;98596.91;;;3.16;77.45
50636;BME280;36598;46.054;11.130;2023-01-10T01:50:17;98607.22;;;3.41;76.44
50636;BME280;36598;46.054;11.130;2023-01-10T01:52:45;98601.41;;;3.49;75.85
50636;BME280;36598;46.054;11.130;2023-01-10T01:55:12;98602.50;;;3.38;75.66
50636;BME280;36598;46.054;11.130;2023-01-10T01:57:38;98604.94;;;3.50;74.96
50636;BME280;36598;46.054;11.130;2023-01-10T02:00:03;98599.28;;;3.18;77.35
50636;BME280;36598;46.054;11.130;2023-01-10T02:02:30;98609.72;;;3.05;77.70
50636;BME280;36598;46.054;11.130;2023-01-10T02:07:26;98620.22;;;3.03;78.46
50636;BME280;36598;46.054;11.130;2023-01-10T02:12:24;98607.91;;;3.23;77.60
50636;BME280;36598;46.054;11.130;2023-01-10T02:14:50;98617.63;;;3.17;77.63
50636;BME280;36598;46.054;11.130;2023-01-10T02:17:16;98616.03;;;3.16;78.05
50636;BME280;36598;46.054;11.130;2023-01-10T02:19:51;98616.47;;;3.18;77.46
50636;BME280;36598;46.054;11.130;2023-01-10T02:27:21;98616.38;;;3.08;77.34
50636;BME280;36598;46.054;11.130;2023-01-10T02:29:59;98625.00;;;3.13;76.29
50636;BME280;36598;46.054;11.130;2023-01-10T02:33:29;98629.81;;;3.27;76.29
50636;BME280;36598;46.054;11.130;2023-01-10T02:38:09;98628.28;;;3.37;76.24
50636;BME280;36598;46.054;11.130;2023-01-10T02:43:11;98627.94;;;2.90;78.62
50636;BME280;36598;46.054;11.130;2023-01-10T02:48:03;98636.28;;;3.05;78.45
50636;BME280;36598;46.054;11.130;2023-01-10T02:52:55;98627.88;;;2.83;79.10
50636;BME280;36598;46.054;11.130;2023-01-10T02:55:23;98622.03;;;2.85;78.46
50636;BME280;36598;46.054;11.130;2023-01-10T02:57:55;98620.75;;;2.71;78.94
50636;BME280;36598;46.054;11.130;2023-01-10T03:08:05;98639.19;;;2.82;79.62
50636;BME280;36598;46.054;11.130;2023-01-10T03:13:08;98649.84;;;2.57;79.45
50636;BME280;36598;46.054;11.130;2023-01-10T03:15:36;98645.38;;;2.38;79.46
50636;BME280;36598;46.054;11.130;2023-01-10T03:18:06;98651.03;;;2.56;79.27
50636;BME280;36598;46.054;11.130;2023-01-10T03:20:34;98653.78;;;2.59;79.35
50636;BME280;36598;46.054;11.130;2023-01-10T03:23:02;98666.44;;;2.74;78.49
50636;BME280;36598;46.054;11.130;2023-01-10T03:25:30;98662.06;;;2.66;79.49
50636;BME280;36598;46.054;11.130;2023-01-10T03:28:05;98662.25;;;2.47;78.76
50636;BME280;36598;46.054;11.130;2023-01-10T03:32:56;98689.22;;;2.52;79.16
50636;BME280;36598;46.054;11.130;2023-01-10T03:35:28;98689.03;;;2.71;79.11
50636;BME280;36598;46.054;11.130;2023-01-10T03:37:57;98689.19;;;2.86;78.59
50636;BME280;36598;46.054;11.130;2023-01-10T03:40:42;98698.56;;;2.51;79.83
50636;BME280;36598;46.054;11.130;2023-01-10T03:43:26;98707.91;;;2.84;79.03
50636;BME280;36598;46.054;11.130;2023-01-10T03:46:14;98694.91;;;2.73;78.33
50636;BME280;36598;46.054;11.130;2023-01-10T03:48:45;98700.38;;;2.73;78.68
50636;BME280;36598;46.054;11.130;2023-01-10T03:51:11;98698.56;;;2.51;78.25
50636;BME280;36598;46.054;11.130;2023-01-10T03:53:38;98700.31;;;2.66;78.47
50636;BME280;36598;46.054;11.130;2023-01-10T03:56:04;98714.06;;;2.77;76.41
50636;BME280;36598;46.054;11.130;2023-01-10T03:58:29;98711.94;;;2.97;75.87
50636;BME280;36598;46.054;11.130;2023-01-10T04:00:55;98714.78;;;2.70;77.05
50636;BME280;36598;46.054;11.130;2023-01-10T04:03:20;98713.63;;;2.71;77.23
50636;BME280;36598;46.054;11.130;2023-01-10T04:05:45;98715.25;;;2.76;76.20
50636;BME280;36598;46.054;11.130;2023-01-10T04:08:11;98720.66;;;2.72;77.00
50636;BME280;36598;46.054;11.130;2023-01-10T04:10:36;98734.50;;;2.90;76.09
50636;BME280;36598;46.054;11.130;2023-01-10T04:13:02;98734.41;;;2.80;75.79
50636;BME280;36598;46.054;11.130;2023-01-10T04:15:28;98732.16;;;2.89;75.08
50636;BME280;36598;46.054;11.130;2023-01-10T04:17:53;98737.69;;;2.96;75.60
50636;BME280;36598;46.054;11.130;2023-01-10T04:20:18;98741.66;;;3.02;75.30
50636;BME280;36598;46.054;11.130;2023-01-10T04:22:44;98741.66;;;3.02;75.23
50636;BME280;36598;46.054;11.130;2023-01-10T04:25:09;98747.03;;;2.95;75.20
50636;BME280;36598;46.054;11.130;2023-01-10T04:27:35;98741.91;;;2.90;74.56
50636;BME280;36598;46.054;11.130;2023-01-10T04:30:00;98749.91;;;3.06;73.95
50636;BME280;36598;46.054;11.130;2023-01-10T04:32:25;98763.28;;;3.18;73.42
50636;BME280;36598;46.054;11.130;2023-01-10T04:34:51;98769.25;;;3.27;72.82
50636;BME280;36598;46.054;11.130;2023-01-10T04:37:17;98758.47;;;2.67;75.30
50636;BME280;36598;46.054;11.130;2023-01-10T04:39:43;98763.28;;;2.81;75.44
50636;BME280;36598;46.054;11.130;2023-01-10T04:42:09;98779.25;;;2.75;75.03
50636;BME280;36598;46.054;11.130;2023-01-10T04:44:34;98776.56;;;2.82;74.74
50636;BME280;36598;46.054;11.130;2023-01-10T04:46:59;98777.88;;;2.92;74.11
50636;BME280;36598;46.054;11.130;2023-01-10T04:49:24;98781.88;;;3.01;73.94
50636;BME280;36598;46.054;11.130;2023-01-10T04:51:50;98787.44;;;2.75;74.87
50636;BME280;36598;46.054;11.130;2023-01-10T04:54:18;98791.09;;;2.90;73.88
50636;BME280;36598;46.054;11.130;2023-01-10T04:56:43;98794.31;;;2.99;73.60
50636;BME280;36598;46.054;11.130;2023-01-10T04:59:09;98796.66;;;2.97;73.95
50636;BME280;36598;46.054;11.130;2023-01-10T05:01:34;98810.81;;;3.06;73.10
50636;BME280;36598;46.054;11.130;2023-01-10T05:04:03;98819.41;;;3.08;73.21
50636;BME280;36598;46.054;11.130;2023-01-10T05:06:28;98813.94;;;3.05;73.94
50636;BME280;36598;46.054;11.130;2023-01-10T05:08:53;98820.72;;;3.18;71.97
50636;BME280;36598;46.054;11.130;2023-01-10T05:11:18;98831.50;;;3.07;72.69
50636;BME280;36598;46.054;11.130;2023-01-10T05:13:44;98833.34;;;2.96;72.89
50636;BME280;36598;46.054;11.130;2023-01-10T05:16:09;98837.50;;;2.83;74.60
50636;BME280;36598;46.054;11.130;2023-01-10T05:18:34;98831.81;;;2.98;73.46
50636;BME280;36598;46.054;11.130;2023-01-10T05:21:00;98840.44;;;3.00;73.37
50636;BME280;36598;46.054;11.130;2023-01-10T05:23:26;98840.97;;;2.80;73.83
50636;BME280;36598;46.054;11.130;2023-01-10T05:25:51;98844.69;;;2.98;73.16
50636;BME280;36598;46.054;11.130;2023-01-10T05:28:17;98840.47;;;3.04;73.61
50636;BME280;36598;46.054;11.130;2023-01-10T05:30:42;98841.22;;;3.01;73.82
50636;BME280;36598;46.054;11.130;2023-01-10T05:33:07;98849.03;;;3.03;73.08
50636;BME280;36598;46.054;11.130;2023-01-10T05:35:32;98853.56;;;3.21;71.59
50636;BME280;36598;46.054;11.130;2023-01-10T05:37:58;98869.38;;;3.05;71.73
50636;BME280;36598;46.054;11.130;2023-01-10T05:40:23;98873.38;;;3.15;72.62
50636;BME280;36598;46.054;11.130;2023-01-10T05:42:48;98861.50;;;3.00;73.35
50636;BME280;36598;46.054;11.130;2023-01-10T05:45:13;98870.31;;;3.20;70.62
50636;BME280;36598;46.054;11.130;2023-01-10T05:47:39;98867.13;;;3.14;72.22
50636;BME280;36598;46.054;11.130;2023-01-10T05:50:04;98873.69;;;3.06;72.41
50636;BME280;36598;46.054;11.130;2023-01-10T05:52:29;98888.03;;;2.99;72.99
50636;BME280;36598;46.054;11.130;2023-01-10T05:54:55;98891.88;;;2.95;72.69
50636;BME280;36598;46.054;11.130;2023-01-10T05:57:20;98893.47;;;2.96;73.24
50636;BME280;36598;46.054;11.130;2023-01-10T05:59:48;98896.22;;;2.96;73.61
50636;BME280;36598;46.054;11.130;2023-01-10T06:02:13;98906.88;;;3.08;72.98
50636;BME280;36598;46.054;11.130;2023-01-10T06:04:39;98902.34;;;3.19;72.33
50636;BME280;36598;46.054;11.130;2023-01-10T06:07:04;98901.41;;;3.08;72.57
50636;BME280;36598;46.054;11.130;2023-01-10T06:09:29;98912.44;;;3.15;72.62
50636;BME280;36598;46.054;11.130;2023-01-10T06:11:55;98920.09;;;3.03;72.80
50636;BME280;36598;46.054;11.130;2023-01-10T06:14:20;98932.91;;;2.68;74.01
50636;BME280;36598;46.054;11.130;2023-01-10T06:16:46;98917.22;;;2.62;73.77
50636;BME280;36598;46.054;11.130;2023-01-10T06:19:11;98940.28;;;2.94;72.71
50636;BME280;36598;46.054;11.130;2023-01-10T06:21:36;98944.91;;;2.90;73.76
50636;BME280;36598;46.054;11.130;2023-01-10T06:24:02;98949.28;;;2.68;74.39
50636;BME280;36598;46.054;11.130;2023-01-10T06:26:27;98954.50;;;2.77;73.57
50636;BME280;36598;46.054;11.130;2023-01-10T06:28:52;98951.13;;;2.87;73.52
50636;BME280;36598;46.054;11.130;2023-01-10T06:31:18;98962.91;;;2.91;73.93
50636;BME280;36598;46.054;11.130;2023-01-10T06:33:43;98961.91;;;2.76;73.87
50636;BME280;36598;46.054;11.130;2023-01-10T06:36:08;98967.56;;;2.91;73.17
50636;BME280;36598;46.054;11.130;2023-01-10T06:38:34;98965.38;;;3.00;72.86
50636;BME280;36598;46.054;11.130;2023-01-10T06:40:59;98980.94;;;2.96;72.66
50636;BME280;36598;46.054;11.130;2023-01-10T06:43:37;98978.09;;;2.89;72.38
50636;BME280;36598;46.054;11.130;2023-01-10T06:46:03;98978.72;;;3.05;70.51
50636;BME280;36598;46.054;11.130;2023-01-10T06:48:28;98989.31;;;3.10;70.00
50636;BME280;36598;46.054;11.130;2023-01-10T06:50:53;98989.44;;;3.17;70.25
50636;BME280;36598;46.054;11.130;2023-01-10T06:53:18;98990.06;;;3.07;70.38
50636;BME280;36598;46.054;11.130;2023-01-10T06:55:44;99001.19;;;3.21;70.72
50636;BME280;36598;46.054;11.130;2023-01-10T06:58:09;99009.19;;;3.07;71.42
50636;BME280;36598;46.054;11.130;2023-01-10T07:00:34;99013.19;;;3.13;71.30
50636;BME280;36598;46.054;11.130;2023-01-10T07:03:00;99014.59;;;3.04;71.19
50636;BME280;36598;46.054;11.130;2023-01-10T07:05:26;99023.56;;;3.00;71.30
50636;BME280;36598;46.054;11.130;2023-01-10T07:07:52;99028.97;;;2.97;70.94
50636;BME280;36598;46.054;11.130;2023-01-10T07:10:18;99036.81;;;3.29;70.39
50636;BME280;36598;46.054;11.130;2023-01-10T07:12:43;99038.41;;;3.30;69.97
50636;BME280;36598;46.054;11.130;2023-01-10T07:15:09;99031.50;;;3.09;69.77
50636;BME280;36598;46.054;11.130;2023-01-10T07:17:34;99054.72;;;3.22;68.79
50636;BME280;36598;46.054;11.130;2023-01-10T07:19:59;99044.06;;;3.44;66.95
50636;BME280;36598;46.054;11.130;2023-01-10T07:22:25;99052.19;;;3.37;66.95
50636;BME280;36598;46.054;11.130;2023-01-10T07:24:50;99060.91;;;3.19;67.72
50636;BME280;36598;46.054;11.130;2023-01-10T07:27:15;99067.81;;;3.36;67.85
50636;BME280;36598;46.054;11.130;2023-01-10T07:29:41;99072.78;;;3.57;66.00
50636;BME280;36598;46.054;11.130;2023-01-10T07:32:06;99087.53;;;3.79;65.63
50636;BME280;36598;46.054;11.130;2023-01-10T07:34:31;99093.81;;;3.83;65.87
50636;BME280;36598;46.054;11.130;2023-01-10T07:36:57;99096.22;;;3.88;64.71
50636;BME280;36598;46.054;11.130;2023-01-10T07:39:22;99099.91;;;3.99;64.84
50636;BME280;36598;46.054;11.130;2023-01-10T07:41:47;99098.03;;;4.07;64.79
50636;BME280;36598;46.054;11.130;2023-01-10T07:44:13;99104.09;;;3.93;65.22
50636;BME280;36598;46.054;11.130;2023-01-10T07:46:39;99113.63;;;4.03;65.52
50636;BME280;36598;46.054;11.130;2023-01-10T07:49:04;99103.38;;;3.96;64.35
50636;BME280;36598;46.054;11.130;2023-01-10T07:51:30;99111.88;;;3.88;64.77
50636;BME280;36598;46.054;11.130;2023-01-10T07:53:55;99112.13;;;4.09;64.01
50636;BME280;36598;46.054;11.130;2023-01-10T07:56:20;99122.50;;;4.26;63.68
50636;BME280;36598;46.054;11.130;2023-01-10T07:58:46;99129.59;;;4.31;63.62
50636;BME280;36598;46.054;11.130;2023-01-10T08:01:11;99144.97;;;4.09;63.17
50636;BME280;36598;46.054;11.130;2023-01-10T08:03:36;99143.56;;;4.22;62.74
50636;BME280;36598;46.054;11.130;2023-01-10T08:06:04;99152.75;;;4.37;62.52
50636;BME280;36598;46.054;11.130;2023-01-10T08:08:30;99150.97;;;4.52;62.76
50636;BME280;36598;46.054;11.130;2023-01-10T08:10:55;99158.84;;;4.57;62.58
50636;BME280;36598;46.054;11.130;2023-01-10T08:13:21;99163.47;;;4.53;62.58
50636;BME280;36598;46.054;11.130;2023-01-10T08:15:47;99167.81;;;4.54;62.43
50636;BME280;36598;46.054;11.130;2023-01-10T08:18:14;99183.09;;;4.55;62.08
50636;BME280;36598;46.054;11.130;2023-01-10T08:20:40;99181.94;;;4.56;61.42
50636;BME280;36598;46.054;11.130;2023-01-10T08:23:05;99190.94;;;4.57;60.94
50636;BME280;36598;46.054;11.130;2023-01-10T08:25:31;99183.50;;;4.57;60.10
50636;BME280;36598;46.054;11.130;2023-01-10T08:27:56;99183.94;;;4.59;60.91
50636;BME280;36598;46.054;11.130;2023-01-10T08:30:21;99196.50;;;4.64;60.27
50636;BME280;36598;46.054;11.130;2023-01-10T08:32:47;99195.47;;;4.75;58.61
50636;BME280;36598;46.054;11.130;2023-01-10T08:35:12;99203.81;;;4.90;58.48
50636;BME280;36598;46.054;11.130;2023-01-10T08:37:38;99211.66;;;9.19;48.60
50636;BME280;36598;46.054;11.130;2023-01-10T08:40:03;99212.78;;;16.48;34.44
50636;BME280;36598;46.054;11.130;2023-01-10T08:42:28;99216.44;;;19.92;27.89
50636;BME280;36598;46.054;11.130;2023-01-10T08:44:54;99222.16;;;22.51;23.52
50636;BME280;36598;46.054;11.130;2023-01-10T08:47:19;99224.69;;;25.45;20.18
50636;BME280;36598;46.054;11.130;2023-01-10T08:49:44;99221.84;;;25.51;19.00
50636;BME280;36598;46.054;11.130;2023-01-10T08:52:11;99236.72;;;25.91;18.97
50636;BME280;36598;46.054;11.130;2023-01-10T08:54:36;99235.41;;;26.61;17.57
50636;BME280;36598;46.054;11.130;2023-01-10T08:57:02;99245.31;;;27.26;17.46
50636;BME280;36598;46.054;11.130;2023-01-10T08:59:27;99235.72;;;28.08;16.29
50636;BME280;36598;46.054;11.130;2023-01-10T09:01:52;99248.78;;;28.17;16.34
50636;BME280;36598;46.054;11.130;2023-01-10T09:04:18;99246.25;;;29.27;15.11
50636;BME280;36598;46.054;11.130;2023-01-10T09:06:43;99255.34;;;29.71;14.90
50636;BME280;36598;46.054;11.130;2023-01-10T09:09:08;99270.47;;;28.63;15.66
50636;BME280;36598;46.054;11.130;2023-01-10T09:11:34;99258.22;;;31.18;13.66
50636;BME280;36598;46.054;11.130;2023-01-10T09:13:59;99255.22;;;31.03;13.80
50636;BME280;36598;46.054;11.130;2023-01-10T09:16:25;99269.88;;;30.26;14.02
50636;BME280;36598;46.054;11.130;2023-01-10T09:18:50;99268.84;;;30.76;13.60
50636;BME280;36598;46.054;11.130;2023-01-10T09:21:15;99264.94;;;29.54;14.40
50636;BME280;36598;46.054;11.130;2023-01-10T09:23:40;99263.69;;;30.48;14.03
50636;BME280;36598;46.054;11.130;2023-01-10T09:26:07;99275.31;;;31.74;12.99
50636;BME280;36598;46.054;11.130;2023-01-10T09:28:33;99277.78;;;29.48;14.20
50636;BME280;36598;46.054;11.130;2023-01-10T09:30:58;99277.91;;;32.42;12.41
50636;BME280;36598;46.054;11.130;2023-01-10T09:33:25;99288.88;;;34.18;11.47
50636;BME280;36598;46.054;11.130;2023-01-10T09:35:50;99288.00;;;32.43;12.00
50636;BME280;36598;46.054;11.130;2023-01-10T09:38:16;99292.00;;;31.41;12.67
50636;BME280;36598;46.054;11.130;2023-01-10T09:48:23;99294.09;;;32.39;12.28
50636;BME280;36598;46.054;11.130;2023-01-10T09:53:42;99293.88;;;34.09;10.62
50636;BME280;36598;46.054;11.130;2023-01-10T09:56:09;99299.16;;;34.44;11.01
50636;BME280;36598;46.054;11.130;2023-01-10T09:58:37;99301.34;;;34.76;10.67
50636;BME280;36598;46.054;11.130;2023-01-10T10:01:18;99298.06;;;34.16;10.83
50636;BME280;36598;46.054;11.130;2023-01-10T10:04:02;99311.69;;;33.77;11.49
50636;BME280;36598;46.054;11.130;2023-01-10T10:06:30;99300.06;;;36.27;10.01
50636;BME280;36598;46.054;11.130;2023-01-10T10:08:58;99294.25;;;37.23;9.17
50636;BME280;36598;46.054;11.130;2023-01-10T10:39:15;99303.78;;;37.16;9.69
50636;BME280;36598;46.054;11.130;2023-01-10T10:41:43;99309.03;;;39.07;9.88
50636;BME280;36598;46.054;11.130;2023-01-10T10:46:44;99301.78;;;38.77;10.39
50636;BME280;36598;46.054;11.130;2023-01-10T10:49:14;99293.28;;;39.71;8.69
50636;BME280;36598;46.054;11.130;2023-01-10T10:51:51;99286.31;;;39.54;8.86
50636;BME280;36598;46.054;11.130;2023-01-10T10:54:17;99290.25;;;37.82;9.03
50636;BME280;36598;46.054;11.130;2023-01-10T10:56:43;99289.06;;;37.86;9.80
50636;BME280;36598;46.054;11.130;2023-01-10T10:59:09;99289.69;;;37.94;8.44
50636;BME280;36598;46.054;11.130;2023-01-10T11:01:38;99295.59;;;39.22;7.98
50636;BME280;36598;46.054;11.130;2023-01-10T11:04:08;99285.63;;;38.65;8.28
50636;BME280;36598;46.054;11.130;2023-01-10T11:06:34;99297.00;;;39.01;7.92
50636;BME280;36598;46.054;11.130;2023-01-10T11:09:00;99292.09;;;39.54;7.93
50636;BME280;36598;46.054;11.130;2023-01-10T11:13:54;99310.38;;;36.99;10.39
50636;BME280;36598;46.054;11.130;2023-01-10T11:16:26;99303.28;;;37.37;9.59
50636;BME280;36598;46.054;11.130;2023-01-10T11:21:39;99294.22;;;37.41;9.67
50636;BME280;36598;46.054;11.130;2023-01-10T11:24:17;99282.03;;;37.79;8.30
50636;BME280;36598;46.054;11.130;2023-01-10T11:26:44;99261.13;;;39.67;7.89
50636;BME280;36598;46.054;11.130;2023-01-10T11:31:37;99258.06;;;37.96;8.38
50636;BME280;36598;46.054;11.130;2023-01-10T11:34:04;99261.59;;;38.14;9.25
50636;BME280;36598;46.054;11.130;2023-01-10T11:36:50;99253.91;;;37.70;10.30
50636;BME280;36598;46.054;11.130;2023-01-10T11:39:16;99260.09;;;37.29;11.22
50636;BME280;36598;46.054;11.130;2023-01-10T11:41:41;99249.38;;;32.88;11.65
50636;BME280;36598;46.054;11.130;2023-01-10T11:44:17;99244.13;;;36.65;10.44
50636;BME280;36598;46.054;11.130;2023-01-10T11:46:45;99256.16;;;32.98;14.37
50636;BME280;36598;46.054;11.130;2023-01-10T11:49:11;99249.84;;;31.62;13.10
50636;BME280;36598;46.054;11.130;2023-01-10T11:51:47;99247.00;;;34.62;10.51
50636;BME280;36598;46.054;11.130;2023-01-10T11:54:20;99229.94;;;33.02;12.00
50636;BME280;36598;46.054;11.130;2023-01-10T11:59:20;99227.59;;;30.85;13.58
50636;BME280;36598;46.054;11.130;2023-01-10T12:04:26;99239.59;;;27.56;14.65
50636;BME280;36598;46.054;11.130;2023-01-10T12:06:53;99243.38;;;26.68;15.94
50636;BME280;36598;46.054;11.130;2023-01-10T12:12:04;99251.81;;;23.93;17.10
50636;BME280;36598;46.054;11.130;2023-01-10T12:14:30;99261.38;;;24.61;15.57
50636;BME280;36598;46.054;11.130;2023-01-10T12:16:59;99264.97;;;22.75;18.14
50636;BME280;36598;46.054;11.130;2023-01-10T12:19:25;99278.78;;;21.92;18.83
50636;BME280;36598;46.054;11.130;2023-01-10T12:21:51;99280.91;;;21.97;19.13
50636;BME280;36598;46.054;11.130;2023-01-10T12:24:21;99290.25;;;20.55;20.11
50636;BME280;36598;46.054;11.130;2023-01-10T12:26:49;99296.25;;;20.48;20.99
50636;BME280;36598;46.054;11.130;2023-01-10T12:29:29;99296.03;;;20.13;20.75
50636;BME280;36598;46.054;11.130;2023-01-10T12:31:56;99313.34;;;20.35;20.76
50636;BME280;36598;46.054;11.130;2023-01-10T12:34:23;99316.72;;;20.48;19.25
50636;BME280;36598;46.054;11.130;2023-01-10T12:47:04;99320.88;;;18.56;20.25
50636;BME280;36598;46.054;11.130;2023-01-10T12:49:35;99321.44;;;18.14;21.28
50636;BME280;36598;46.054;11.130;2023-01-10T12:52:04;99327.16;;;17.92;20.47
50636;BME280;36598;46.054;11.130;2023-01-10T12:54:34;99336.72;;;18.32;20.75
50636;BME280;36598;46.054;11.130;2023-01-10T12:57:00;99337.34;;;18.26;21.59
50636;BME280;36598;46.054;11.130;2023-01-10T12:59:32;99336.44;;;18.66;20.76
50636;BME280;36598;46.054;11.130;2023-01-10T13:02:03;99346.09;;;18.65;20.15
50636;BME280;36598;46.054;11.130;2023-01-10T13:04:30;99355.22;;;18.20;20.36
50636;BME280;36598;46.054;11.130;2023-01-10T13:06:58;99350.75;;;18.41;19.62
50636;BME280;36598;46.054;11.130;2023-01-10T13:09:25;99344.81;;;17.49;20.35
50636;BME280;36598;46.054;11.130;2023-01-10T13:14:16;99349.25;;;17.68;23.14
50636;BME280;36598;46.054;11.130;2023-01-10T13:16:46;99346.28;;;17.32;23.67
50636;BME280;36598;46.054;11.130;2023-01-10T13:21:39;99348.31;;;17.31;24.16
50636;BME280;36598;46.054;11.130;2023-01-10T13:26:47;99361.44;;;16.99;23.14
50636;BME280;36598;46.054;11.130;2023-01-10T13:29:17;99365.09;;;17.31;24.90
50636;BME280;36598;46.054;11.130;2023-01-10T13:31:43;99359.19;;;17.60;22.43
50636;BME280;36598;46.054;11.130;2023-01-10T13:34:09;99370.81;;;17.59;23.70
50636;BME280;36598;46.054;11.130;2023-01-10T13:36:48;99363.31;;;17.02;22.05
50636;BME280;36598;46.054;11.130;2023-01-10T13:39:19;99366.41;;;17.17;22.06
50636;BME280;36598;46.054;11.130;2023-01-10T13:52:53;99364.44;;;15.59;22.55
50636;BME280;36598;46.054;11.130;2023-01-10T13:55:20;99375.19;;;15.73;23.86
50636;BME280;36598;46.054;11.130;2023-01-10T13:57:50;99389.34;;;15.66;23.81
50636;BME280;36598;46.054;11.130;2023-01-10T14:00:20;99393.72;;;15.67;24.01
50636;BME280;36598;46.054;11.130;2023-01-10T14:03:04;99398.84;;;15.69;23.50
50636;BME280;36598;46.054;11.130;2023-01-10T14:05:30;99385.69;;;16.08;23.10
50636;BME280;36598;46.054;11.130;2023-01-10T14:07:55;99389.16;;;15.99;23.53
50636;BME280;36598;46.054;11.130;2023-01-10T14:10:25;99386.81;;;15.85;23.13
50636;BME280;36598;46.054;11.130;2023-01-10T14:15:26;99392.25;;;16.01;23.63
50636;BME280;36598;46.054;11.130;2023-01-10T14:20:21;99406.56;;;15.36;22.31
50636;BME280;36598;46.054;11.130;2023-01-10T14:22:58;99413.78;;;15.20;23.16
50636;BME280;36598;46.054;11.130;2023-01-10T14:25:25;99405.88;;;14.73;22.95
50636;BME280;36598;46.054;11.130;2023-01-10T14:27:51;99410.41;;;14.67;23.40
50636;BME280;36598;46.054;11.130;2023-01-10T14:30:36;99418.16;;;14.43;22.44
50636;BME280;36598;46.054;11.130;2023-01-10T14:33:11;99412.47;;;13.98;23.66
50636;BME280;36598;46.054;11.130;2023-01-10T14:35:38;99413.19;;;13.66;23.33
50636;BME280;36598;46.054;11.130;2023-01-10T14:38:07;99416.28;;;13.32;23.73
50636;BME280;36598;46.054;11.130;2023-01-10T14:40:42;99418.28;;;13.31;23.22
50636;BME280;36598;46.054;11.130;2023-01-10T14:43:12;99416.53;;;13.17;23.96
50636;BME280;36598;46.054;11.130;2023-01-10T14:45:44;99425.88;;;13.07;24.81
50636;BME280;36598;46.054;11.130;2023-01-10T14:48:22;99428.06;;;12.96;25.25
50636;BME280;36598;46.054;11.130;2023-01-10T14:50:50;99429.00;;;12.89;25.25
50636;BME280;36598;46.054;11.130;2023-01-10T14:53:26;99435.66;;;12.92;24.19
50636;BME280;36598;46.054;11.130;2023-01-10T14:55:52;99430.94;;;12.69;25.47
50636;BME280;36598;46.054;11.130;2023-01-10T14:58:17;99442.03;;;12.69;23.79
50636;BME280;36598;46.054;11.130;2023-01-10T15:00:43;99440.94;;;12.63;23.97
50636;BME280;36598;46.054;11.130;2023-01-10T15:03:14;99444.19;;;12.58;23.84